Weather at Humberto Delgado Airport (Lisbon Portela Airport)

Public forecast

Using degrees Celsius for public forecast. Weather courtesy of forecast.io.

Current aviation weather report (METAR) for Humberto Delgado Airport (Lisbon Portela Airport)

Report is more than 6 hours old.

2022/11/14 15:30 (retrieved 2 years ago)

LPPT 141530Z 23008KT 8000 -RADZ SCT008 BKN022 17/16 Q1019

Aviation forecast (TAF) for Humberto Delgado Airport (Lisbon Portela Airport)

Forecast is more than 12 hours old.

2023/02/22 18:18 (retrieved 1 year ago)

TAF LPPT 221700Z 2218/2324 34008KT 9999 BKN040 BECMG 2223/2302 34013KT FEW015 SCT030 TEMPO 2310/2318 34018G30KT BECMG 2320/2323 34007KT SCT040